Trio Vega — 9LD2278 — position and weather

sailwx.info

Track history (hours):
 
Tides and Currents Weather Stations Pressure Air Temp Water Temp Dewpoint Dewpoint Depression Visibility Wind Speed Wind Dir Waves Ship Positions

Trio Vega

Last reported at 2014-Nov-05 12:32 UTC. Time now 2014-Nov-27 01:32 UTC.
Position N 37°48' E 024°34'.
Warning: this ship's position is 21 days out of date.

Length 71 m; draft 3.5 m.

Type: Cargo ship. MMSI: 667977000.

Date/timePositionNaut miles runAvg speedWind from/ knotsBaromVisibWave heightAir tempDewpointWater temp
2014-Nov-05 12:32N 37°48' E 024°34'17 8.8
2014-Nov-05 10:33N 37°32' E 024°24'9 9.0
2014-Nov-05 09:33N 37°26' E 024°16'9 9.2
2014-Nov-05 08:32N 37°19' E 024°08'  
2014-Oct-30 18:20N 36°45' E 000°28'7 8.2
2014-Oct-30 17:30N 36°43' E 000°20'9 8.0
2014-Oct-30 16:26N 36°41' E 000°09'262 8.2
2014-Oct-29 08:27N 35°60' W 005°12'8 9.2
2014-Oct-29 07:33N 35°58' W 005°22'257 8.0
2014-Oct-27 23:33N 33°13' W 009°20'8 8.6
2014-Oct-27 22:33N 33°07' W 009°27'8 8.3
2014-Oct-27 21:33N 33°02' W 009°34'9 8.1
2014-Oct-27 20:27N 32°55' W 009°42'10 8.3
2014-Oct-27 19:17N 32°49' W 009°51'7 8.8
2014-Oct-27 18:29N 32°44' W 009°57'  
Track history (hours):
 
Tides and Currents Weather Stations Pressure Air Temp Water Temp Dewpoint Dewpoint Depression Visibility Wind Speed Wind Dir Waves Ship Positions

Trio Vega

Last reported at 2014-Nov-05 12:32 UTC. Time now 2014-Nov-27 01:32 UTC.
Position N 37°48' E 024°34'.
Warning: this ship's position is 21 days out of date.

Length 71 m; draft 3.5 m.

Type: Cargo ship. MMSI: 667977000.

Date/timePositionNaut miles runAvg speedWind from/ knotsBaromVisibWave heightAir tempDewpointWater temp
2014-Nov-05 12:32N 37°48' E 024°34'17 8.8
2014-Nov-05 10:33N 37°32' E 024°24'9 9.0
2014-Nov-05 09:33N 37°26' E 024°16'9 9.2
2014-Nov-05 08:32N 37°19' E 024°08'  
2014-Oct-30 18:20N 36°45' E 000°28'7 8.2
2014-Oct-30 17:30N 36°43' E 000°20'9 8.0
2014-Oct-30 16:26N 36°41' E 000°09'262 8.2
2014-Oct-29 08:27N 35°60' W 005°12'8 9.2
2014-Oct-29 07:33N 35°58' W 005°22'257 8.0
2014-Oct-27 23:33N 33°13' W 009°20'8 8.6
2014-Oct-27 22:33N 33°07' W 009°27'8 8.3
2014-Oct-27 21:33N 33°02' W 009°34'9 8.1
2014-Oct-27 20:27N 32°55' W 009°42'10 8.3
2014-Oct-27 19:17N 32°49' W 009°51'7 8.8
2014-Oct-27 18:29N 32°44' W 009°57'  

Dump ship's entire track history